Time;durP1;ratioP1;P1;durP2;ratioP2;P2;SDS_P1;SDS_P2;PMS_P1;PMS_P2;Temp;Humidity;BMP_temperature;BMP_pressure;BME280_temperature;BME280_humidity;BME280_pressure;Samples;Min_cycle;Max_cycle;Signal;HPM_P1;HPM_P2
2022/07/03 00:02:23;;;;;;;0.00;0.00;;;;;;;;;;4931669;29;20024;-58
2022/07/03 00:04:48;;;;;;;0.00;0.00;;;;;;;;;;4929602;29;20098;-58
2022/07/03 00:07:13;;;;;;;0.00;0.00;;;;;;;;;;4932500;29;20031;-59
2022/07/03 00:09:38;;;;;;;0.00;0.00;;;;;;;;;;4914705;29;20614;-58
2022/07/03 00:12:04;;;;;;;0.00;0.00;;;;;;;;;;4929533;29;20567;-58
2022/07/03 00:14:29;;;;;;;0.00;0.00;;;;;;;;;;4931596;29;20022;-58
2022/07/03 00:16:55;;;;;;;0.20;0.20;;;;;;;;;;4932349;29;20024;-59
2022/07/03 00:19:20;;;;;;;0.00;0.00;;;;;;;;;;4931679;29;20047;-58
2022/07/03 00:21:48;;;;;;;0.00;0.00;;;;;;;;;;4929228;29;20440;-58
2022/07/03 00:24:16;;;;;;;0.00;0.00;;;;;;;;;;4931338;29;20430;-58
2022/07/03 00:26:42;;;;;;;0.00;0.00;;;;;;;;;;4931802;29;20043;-59
2022/07/03 00:29:09;;;;;;;0.00;0.00;;;;;;;;;;4932046;29;20454;-59
2022/07/03 00:31:34;;;;;;;0.00;0.00;;;;;;;;;;4931548;29;20462;-60
2022/07/03 00:34:01;;;;;;;0.00;0.00;;;;;;;;;;4928388;29;20028;-60
2022/07/03 00:36:29;;;;;;;0.00;0.00;;;;;;;;;;4931769;29;20042;-60
2022/07/03 00:38:54;;;;;;;0.00;0.00;;;;;;;;;;4930457;29;20473;-60
2022/07/03 00:41:27;;;;;;;0.00;0.00;;;;;;;;;;4931992;29;20083;-60
2022/07/03 00:43:52;;;;;;;0.00;0.00;;;;;;;;;;4930845;29;20485;-60
2022/07/03 00:46:21;;;;;;;0.00;0.00;;;;;;;;;;4931592;29;20023;-60
2022/07/03 00:48:48;;;;;;;0.00;0.00;;;;;;;;;;4931637;29;20027;-61
2022/07/03 00:51:15;;;;;;;0.00;0.00;;;;;;;;;;4930947;29;20035;-61
2022/07/03 00:53:45;;;;;;;0.00;0.00;;;;;;;;;;4930372;29;20042;-61
2022/07/03 00:56:13;;;;;;;0.00;0.00;;;;;;;;;;4931088;29;20027;-60
2022/07/03 00:58:38;;;;;;;0.00;0.00;;;;;;;;;;4931200;29;20016;-59
2022/07/03 01:01:04;;;;;;;0.00;0.00;;;;;;;;;;4931781;29;20128;-59
2022/07/03 01:03:32;;;;;;;0.45;0.28;;;;;;;;;;4930579;29;20028;-57
2022/07/03 01:06:02;;;;;;;1.55;1.27;;;;;;;;;;4931628;29;20520;-58
2022/07/03 01:08:46;;;;;;;0.10;0.10;;;;;;;;;;4931139;29;20028;-61
2022/07/03 01:11:29;;;;;;;0.00;0.00;;;;;;;;;;4930605;29;20070;-61
2022/07/03 01:13:55;;;;;;;0.00;0.00;;;;;;;;;;4929954;29;20098;-61
2022/07/03 01:16:26;;;;;;;0.00;0.00;;;;;;;;;;4929134;29;20106;-61
2022/07/03 01:19:07;;;;;;;0.00;0.00;;;;;;;;;;4929643;29;20358;-61
2022/07/03 01:21:48;;;;;;;0.00;0.00;;;;;;;;;;4931274;29;20030;-58
2022/07/03 01:24:33;;;;;;;0.00;0.00;;;;;;;;;;4927100;29;20032;-59
2022/07/03 01:27:03;;;;;;;0.00;0.00;;;;;;;;;;4911279;29;20122;-59
2022/07/03 01:29:35;;;;;;;0.00;0.00;;;;;;;;;;4930053;29;20375;-60
2022/07/03 01:32:00;;;;;;;0.00;0.00;;;;;;;;;;4930817;29;20032;-61
2022/07/03 01:34:30;;;;;;;0.00;0.00;;;;;;;;;;4930682;29;20094;-60
2022/07/03 01:36:57;;;;;;;0.20;0.20;;;;;;;;;;4935316;29;20028;-60
2022/07/03 01:39:25;;;;;;;0.00;0.00;;;;;;;;;;4934884;29;20151;-60
2022/07/03 01:41:52;;;;;;;0.00;0.00;;;;;;;;;;4935188;29;20643;-61
2022/07/03 01:44:18;;;;;;;0.00;0.00;;;;;;;;;;4933912;29;20032;-60
2022/07/03 01:46:45;;;;;;;0.00;0.00;;;;;;;;;;4933869;29;20046;-60
2022/07/03 01:49:12;;;;;;;0.00;0.00;;;;;;;;;;4934587;29;20103;-60
2022/07/03 01:51:38;;;;;;;0.00;0.00;;;;;;;;;;4934540;29;20499;-60
2022/07/03 01:54:04;;;;;;;0.30;0.30;;;;;;;;;;4933415;29;20016;-61
2022/07/03 01:56:32;;;;;;;0.50;0.50;;;;;;;;;;4930439;29;20376;-60
2022/07/03 01:58:58;;;;;;;0.63;0.63;;;;;;;;;;4933889;29;20028;-60
2022/07/03 02:01:42;;;;;;;0.65;0.65;;;;;;;;;;4933617;29;20055;-59
2022/07/03 02:04:20;;;;;;;0.00;0.00;;;;;;;;;;4932740;29;20063;-60
2022/07/03 02:06:48;;;;;;;0.00;0.00;;;;;;;;;;4933550;29;20028;-60
2022/07/03 02:09:17;;;;;;;0.00;0.00;;;;;;;;;;4932996;29;20389;-59
2022/07/03 02:11:43;;;;;;;0.00;0.00;;;;;;;;;;4931607;29;20031;-59
2022/07/03 02:14:30;;;;;;;0.00;0.00;;;;;;;;;;4931694;29;20027;-59
2022/07/03 02:17:14;;;;;;;0.00;0.00;;;;;;;;;;4932577;29;20016;-59
2022/07/03 02:20:00;;;;;;;0.00;0.00;;;;;;;;;;4914984;29;20529;-60
2022/07/03 02:22:27;;;;;;;0.00;0.00;;;;;;;;;;4933977;29;20027;-58
2022/07/03 02:24:57;;;;;;;0.00;0.00;;;;;;;;;;4933901;29;20031;-59
2022/07/03 02:27:24;;;;;;;0.13;0.13;;;;;;;;;;4933832;29;20157;-59
2022/07/03 02:29:53;;;;;;;0.00;0.00;;;;;;;;;;4933829;29;20104;-60
2022/07/03 02:32:21;;;;;;;0.20;0.20;;;;;;;;;;4934064;29;20094;-60
2022/07/03 02:34:49;;;;;;;0.00;0.00;;;;;;;;;;4933088;29;20118;-59
2022/07/03 02:37:18;;;;;;;0.32;0.32;;;;;;;;;;4932092;29;20032;-59
2022/07/03 02:40:02;;;;;;;0.05;0.05;;;;;;;;;;4931098;29;20031;-60
2022/07/03 02:42:36;;;;;;;0.80;0.80;;;;;;;;;;4933767;29;20050;-60
2022/07/03 02:45:03;;;;;;;0.00;0.00;;;;;;;;;;4932777;29;20030;-61
2022/07/03 02:47:34;;;;;;;0.00;0.00;;;;;;;;;;4931896;29;20466;-60
2022/07/03 02:50:08;;;;;;;0.00;0.00;;;;;;;;;;4934288;29;20384;-60
2022/07/03 02:52:33;;;;;;;0.00;0.00;;;;;;;;;;4932573;29;20034;-60
2022/07/03 02:55:17;;;;;;;0.00;0.00;;;;;;;;;;4933923;29;20024;-60
2022/07/03 02:57:43;;;;;;;0.00;0.00;;;;;;;;;;4932569;29;20027;-59
2022/07/03 03:00:10;;;;;;;0.00;0.00;;;;;;;;;;4933628;29;20024;-60
2022/07/03 03:02:54;;;;;;;0.00;0.00;;;;;;;;;;4931737;29;20477;-60
2022/07/03 03:05:22;;;;;;;0.00;0.00;;;;;;;;;;4933749;29;20405;-59
2022/07/03 03:08:06;;;;;;;0.00;0.00;;;;;;;;;;4932842;29;20043;-60
2022/07/03 03:10:37;;;;;;;0.00;0.00;;;;;;;;;;4931836;29;20031;-60
2022/07/03 03:13:04;;;;;;;0.00;0.00;;;;;;;;;;4932296;29;20385;-60
2022/07/03 03:15:30;;;;;;;0.00;0.00;;;;;;;;;;4932789;29;20020;-60
2022/07/03 03:18:00;;;;;;;0.00;0.00;;;;;;;;;;4933391;29;20028;-60
2022/07/03 03:20:25;;;;;;;;;;;;;;;;;;4932306;29;20050;-59
2022/07/03 03:23:09;;;;;;;0.00;0.00;;;;;;;;;;4932806;29;19911;-59
2022/07/03 03:25:34;;;;;;;0.00;0.00;;;;;;;;;;4928998;29;20047;-60
2022/07/03 03:28:00;;;;;;;0.00;0.00;;;;;;;;;;4929084;29;20027;-60
2022/07/03 03:30:25;;;;;;;0.00;0.00;;;;;;;;;;4932329;29;20032;-59
2022/07/03 03:32:50;;;;;;;0.08;0.08;;;;;;;;;;4932459;29;20480;-60
2022/07/03 03:35:16;;;;;;;0.00;0.00;;;;;;;;;;4924384;29;20032;-60
2022/07/03 03:37:41;;;;;;;0.00;0.00;;;;;;;;;;4932801;29;20027;-60
2022/07/03 03:40:06;;;;;;;0.00;0.00;;;;;;;;;;4930291;29;20022;-58
2022/07/03 03:42:32;;;;;;;0.00;0.00;;;;;;;;;;4931572;29;20028;-58
2022/07/03 03:44:57;;;;;;;0.00;0.00;;;;;;;;;;4933154;29;20471;-59
2022/07/03 03:47:23;;;;;;;0.00;0.00;;;;;;;;;;4932196;29;20052;-59
2022/07/03 03:49:48;;;;;;;0.20;0.20;;;;;;;;;;4932545;29;20024;-59
2022/07/03 03:52:13;;;;;;;0.00;0.00;;;;;;;;;;4932540;29;20028;-59
2022/07/03 03:54:39;;;;;;;0.00;0.00;;;;;;;;;;4932055;29;20426;-59
2022/07/03 03:57:21;;;;;;;0.00;0.00;;;;;;;;;;4929755;29;20024;-58
2022/07/03 03:59:47;;;;;;;0.00;0.00;;;;;;;;;;4929554;29;20031;-59
2022/07/03 04:02:12;;;;;;;0.00;0.00;;;;;;;;;;4932241;29;20027;-59
2022/07/03 04:04:37;;;;;;;0.00;0.00;;;;;;;;;;4929956;29;20039;-58
2022/07/03 04:07:03;;;;;;;0.00;0.00;;;;;;;;;;4929789;29;20226;-58
2022/07/03 04:09:28;;;;;;;0.00;0.00;;;;;;;;;;4932699;29;20023;-60
2022/07/03 04:11:53;;;;;;;0.00;0.00;;;;;;;;;;4930923;29;20024;-62
2022/07/03 04:14:18;;;;;;;0.00;0.00;;;;;;;;;;4932392;29;20059;-62
2022/07/03 04:16:43;;;;;;;0.00;0.00;;;;;;;;;;4931790;29;20598;-62
2022/07/03 04:19:09;;;;;;;0.00;0.00;;;;;;;;;;4932366;29;20048;-62
2022/07/03 04:21:34;;;;;;;0.00;0.00;;;;;;;;;;4929649;29;20032;-62
2022/07/03 04:23:59;;;;;;;0.00;0.00;;;;;;;;;;4932458;29;20033;-59
2022/07/03 04:26:24;;;;;;;0.00;0.00;;;;;;;;;;4931981;29;20100;-58
2022/07/03 04:28:49;;;;;;;0.10;0.10;;;;;;;;;;4928642;29;20118;-58
2022/07/03 04:31:15;;;;;;;0.00;0.00;;;;;;;;;;4931958;29;20146;-57
2022/07/03 04:33:40;;;;;;;0.63;0.63;;;;;;;;;;4929108;29;20130;-57
2022/07/03 04:36:05;;;;;;;0.00;0.00;;;;;;;;;;4931713;29;20030;-58
2022/07/03 04:38:31;;;;;;;0.00;0.00;;;;;;;;;;4931888;29;20079;-58
2022/07/03 04:40:56;;;;;;;0.43;0.40;;;;;;;;;;4930276;29;20540;-58
2022/07/03 04:43:21;;;;;;;0.00;0.00;;;;;;;;;;4931098;29;20028;-62
2022/07/03 04:45:47;;;;;;;0.00;0.00;;;;;;;;;;4929245;29;20019;-59
2022/07/03 04:48:12;;;;;;;0.30;0.30;;;;;;;;;;4931865;29;20035;-59
2022/07/03 04:50:37;;;;;;;0.00;0.00;;;;;;;;;;4931975;29;20090;-60
2022/07/03 04:53:02;;;;;;;0.00;0.00;;;;;;;;;;4931962;29;20062;-58
2022/07/03 04:55:27;;;;;;;0.00;0.00;;;;;;;;;;4931654;29;20031;-58
2022/07/03 04:57:53;;;;;;;0.00;0.00;;;;;;;;;;4931300;29;20051;-58
2022/07/03 05:00:18;;;;;;;0.00;0.00;;;;;;;;;;4932157;29;20027;-58
2022/07/03 05:02:43;;;;;;;1.92;1.80;;;;;;;;;;4931382;29;20041;-59
2022/07/03 05:05:08;;;;;;;0.00;0.00;;;;;;;;;;4931932;29;20135;-60
2022/07/03 05:07:34;;;;;;;0.00;0.00;;;;;;;;;;4929642;29;20032;-60
2022/07/03 05:09:59;;;;;;;0.00;0.00;;;;;;;;;;4912552;29;20027;-60
2022/07/03 05:12:24;;;;;;;0.00;0.00;;;;;;;;;;4931547;29;20381;-60
2022/07/03 05:14:49;;;;;;;0.00;0.00;;;;;;;;;;4931061;29;20073;-59
2022/07/03 05:17:16;;;;;;;0.00;0.00;;;;;;;;;;4927919;29;20020;-65
2022/07/03 05:19:41;;;;;;;0.00;0.00;;;;;;;;;;4928485;29;20058;-60
2022/07/03 05:22:07;;;;;;;1.90;1.90;;;;;;;;;;4929994;29;20019;-60
2022/07/03 05:24:32;;;;;;;0.00;0.00;;;;;;;;;;4930548;29;20027;-59
2022/07/03 05:26:57;;;;;;;0.00;0.00;;;;;;;;;;4929447;29;20046;-60
2022/07/03 05:29:22;;;;;;;0.00;0.00;;;;;;;;;;4931650;29;20167;-59
2022/07/03 05:31:48;;;;;;;0.00;0.00;;;;;;;;;;4930729;29;20043;-60
2022/07/03 05:34:13;;;;;;;0.00;0.00;;;;;;;;;;4931441;29;20038;-60
2022/07/03 05:36:38;;;;;;;39.25;1.13;;;;;;;;;;4930954;29;20016;-62
2022/07/03 05:41:47;;;;;;;0.00;0.00;;;;;;;;;;4930828;29;20039;-59
2022/07/03 05:44:12;;;;;;;0.00;0.00;;;;;;;;;;4930468;29;20370;-60
2022/07/03 05:46:38;;;;;;;0.00;0.00;;;;;;;;;;4929080;29;20279;-62
2022/07/03 05:49:03;;;;;;;0.38;0.38;;;;;;;;;;4931346;29;20032;-60
2022/07/03 05:51:28;;;;;;;0.00;0.00;;;;;;;;;;4931290;29;20147;-60
2022/07/03 05:53:53;;;;;;;0.00;0.00;;;;;;;;;;4930812;29;20032;-59
2022/07/03 05:56:19;;;;;;;0.00;0.00;;;;;;;;;;4932471;29;20278;-59
2022/07/03 05:58:44;;;;;;;0.00;0.00;;;;;;;;;;4930773;29;20102;-59
2022/07/03 06:01:09;;;;;;;0.00;0.00;;;;;;;;;;4928667;29;20030;-59
2022/07/03 06:03:34;;;;;;;0.00;0.00;;;;;;;;;;4930752;29;20027;-59
2022/07/03 06:06:00;;;;;;;0.00;0.00;;;;;;;;;;4928018;29;20470;-60
2022/07/03 06:08:25;;;;;;;0.63;0.63;;;;;;;;;;4930912;29;20850;-61
2022/07/03 06:10:50;;;;;;;0.00;0.00;;;;;;;;;;4928776;29;20030;-61
2022/07/03 06:13:15;;;;;;;0.00;0.00;;;;;;;;;;4928317;29;20049;-62
2022/07/03 06:15:40;;;;;;;0.00;0.00;;;;;;;;;;4929343;29;20046;-60
2022/07/03 06:18:06;;;;;;;0.07;0.07;;;;;;;;;;4929557;29;20462;-60
2022/07/03 06:20:31;;;;;;;0.00;0.00;;;;;;;;;;4930468;29;20350;-62
2022/07/03 06:22:56;;;;;;;0.00;0.00;;;;;;;;;;4934208;29;20290;-62
2022/07/03 06:25:21;;;;;;;0.00;0.00;;;;;;;;;;4934711;29;20036;-62
2022/07/03 06:27:47;;;;;;;0.00;0.00;;;;;;;;;;4932578;29;20369;-63
2022/07/03 06:30:12;;;;;;;0.00;0.00;;;;;;;;;;4931614;29;20108;-63
2022/07/03 06:32:40;;;;;;;0.00;0.00;;;;;;;;;;4933583;29;20458;-63
2022/07/03 06:35:06;;;;;;;0.00;0.00;;;;;;;;;;4933366;29;20031;-63
2022/07/03 06:37:31;;;;;;;0.00;0.00;;;;;;;;;;4932434;29;21096;-63
2022/07/03 06:39:56;;;;;;;0.00;0.00;;;;;;;;;;4933326;29;20024;-64
2022/07/03 06:42:21;;;;;;;0.55;0.55;;;;;;;;;;4934197;29;20270;-63
2022/07/03 06:44:46;;;;;;;1.33;1.23;;;;;;;;;;4933028;29;20028;-64
2022/07/03 06:47:12;;;;;;;0.00;0.00;;;;;;;;;;4933176;29;20295;-63
2022/07/03 06:49:37;;;;;;;0.47;0.47;;;;;;;;;;4933306;29;20023;-63
2022/07/03 06:52:02;;;;;;;2.63;0.30;;;;;;;;;;4934073;29;20381;-62
2022/07/03 06:54:28;;;;;;;0.20;0.20;;;;;;;;;;4930095;29;20060;-64
2022/07/03 06:56:53;;;;;;;0.30;0.30;;;;;;;;;;4932663;29;20354;-63
2022/07/03 06:59:18;;;;;;;0.00;0.00;;;;;;;;;;4933390;29;20027;-62
2022/07/03 07:01:44;;;;;;;0.00;0.00;;;;;;;;;;4933260;29;20477;-64
2022/07/03 07:04:09;;;;;;;0.00;0.00;;;;;;;;;;4930503;29;20728;-63
2022/07/03 07:06:35;;;;;;;0.00;0.00;;;;;;;;;;4933073;29;20020;-62
2022/07/03 07:09:00;;;;;;;0.00;0.00;;;;;;;;;;4933145;29;20038;-62
2022/07/03 07:11:25;;;;;;;0.00;0.00;;;;;;;;;;4933658;29;20027;-63
2022/07/03 07:13:50;;;;;;;0.30;0.30;;;;;;;;;;4931078;29;20300;-62
2022/07/03 07:16:16;;;;;;;0.30;0.30;;;;;;;;;;4932076;29;20264;-62
2022/07/03 07:18:41;;;;;;;0.00;0.00;;;;;;;;;;4932754;29;20340;-62
2022/07/03 07:21:07;;;;;;;0.35;0.35;;;;;;;;;;4933175;29;20122;-62
2022/07/03 07:23:32;;;;;;;0.77;0.20;;;;;;;;;;4933472;29;20059;-62
2022/07/03 07:25:58;;;;;;;0.38;0.38;;;;;;;;;;4932970;29;20331;-63
2022/07/03 07:28:23;;;;;;;0.00;0.00;;;;;;;;;;4933304;29;20035;-63
2022/07/03 07:30:48;;;;;;;0.20;0.20;;;;;;;;;;4931143;29;20450;-63
2022/07/03 07:33:13;;;;;;;0.30;0.30;;;;;;;;;;4924307;29;20046;-62
2022/07/03 07:35:39;;;;;;;0.00;0.00;;;;;;;;;;4931129;29;20023;-63
2022/07/03 07:38:04;;;;;;;0.30;0.30;;;;;;;;;;4930410;29;20051;-63
2022/07/03 07:40:29;;;;;;;0.00;0.00;;;;;;;;;;4933054;29;20266;-63
2022/07/03 07:42:54;;;;;;;0.47;0.47;;;;;;;;;;4932831;29;20020;-63
2022/07/03 07:45:19;;;;;;;0.00;0.00;;;;;;;;;;4933111;29;20028;-63
2022/07/03 07:47:45;;;;;;;0.00;0.00;;;;;;;;;;4931014;29;21259;-63
2022/07/03 07:50:10;;;;;;;0.00;0.00;;;;;;;;;;4932145;29;20035;-62
2022/07/03 07:52:36;;;;;;;0.00;0.00;;;;;;;;;;4932229;29;20485;-63
2022/07/03 07:55:01;;;;;;;0.95;0.20;;;;;;;;;;4932729;29;20023;-63
2022/07/03 07:57:36;;;;;;;0.00;0.00;;;;;;;;;;4932490;29;20422;-63
2022/07/03 08:00:07;;;;;;;0.00;0.00;;;;;;;;;;4932470;29;20286;-62
2022/07/03 08:08:11;;;;;;;2.38;0.43;;;;;;;;;;4920207;29;20071;-62
2022/07/03 08:10:57;;;;;;;0.67;0.67;;;;;;;;;;4931852;29;20047;-62
2022/07/03 08:13:22;;;;;;;0.00;0.00;;;;;;;;;;4932220;29;20298;-63
2022/07/03 08:15:48;;;;;;;0.00;0.00;;;;;;;;;;4928567;29;20020;-63
2022/07/03 08:18:13;;;;;;;0.00;0.00;;;;;;;;;;4930650;29;20028;-61
2022/07/03 08:20:39;;;;;;;0.00;0.00;;;;;;;;;;4928065;29;20024;-62
2022/07/03 08:23:05;;;;;;;0.15;0.15;;;;;;;;;;4929044;29;20027;-63
2022/07/03 08:25:30;;;;;;;0.00;0.00;;;;;;;;;;4928721;29;20042;-63
2022/07/03 08:27:56;;;;;;;0.00;0.00;;;;;;;;;;4928210;29;20031;-63
2022/07/03 08:30:21;;;;;;;0.00;0.00;;;;;;;;;;4927185;29;20067;-64
2022/07/03 08:32:50;;;;;;;0.30;0.15;;;;;;;;;;4927899;29;20472;-61
2022/07/03 08:35:16;;;;;;;0.00;0.00;;;;;;;;;;4928682;29;20429;-63
2022/07/03 08:37:42;;;;;;;0.32;0.32;;;;;;;;;;4928085;29;20027;-62
2022/07/03 08:40:08;;;;;;;0.00;0.00;;;;;;;;;;4928421;29;20027;-63
2022/07/03 08:42:36;;;;;;;0.00;0.00;;;;;;;;;;4927219;29;20547;-62
2022/07/03 08:45:01;;;;;;;2.03;1.92;;;;;;;;;;4925947;29;20023;-63
2022/07/03 08:47:27;;;;;;;0.30;0.30;;;;;;;;;;4927911;29;20027;-63
2022/07/03 08:49:53;;;;;;;0.10;0.05;;;;;;;;;;4931346;29;20020;-63
2022/07/03 08:52:18;;;;;;;0.10;0.10;;;;;;;;;;4931777;29;20016;-63
2022/07/03 08:54:43;;;;;;;0.13;0.13;;;;;;;;;;4931740;29;20042;-63
2022/07/03 08:57:11;;;;;;;0.00;0.00;;;;;;;;;;4931657;29;20496;-63
2022/07/03 08:59:37;;;;;;;0.10;0.10;;;;;;;;;;4929297;29;20024;-63
2022/07/03 09:02:04;;;;;;;0.85;0.85;;;;;;;;;;4927621;29;20532;-65
2022/07/03 09:04:29;;;;;;;0.00;0.00;;;;;;;;;;4925992;29;20034;-65
2022/07/03 09:06:55;;;;;;;0.47;0.47;;;;;;;;;;4930647;29;20028;-64
2022/07/03 09:09:20;;;;;;;0.38;0.38;;;;;;;;;;4929214;29;20466;-63
2022/07/03 09:11:46;;;;;;;0.15;0.15;;;;;;;;;;4928595;29;20102;-64
2022/07/03 09:14:11;;;;;;;0.13;0.13;;;;;;;;;;4925346;29;20039;-64
2022/07/03 09:16:37;;;;;;;0.00;0.00;;;;;;;;;;4928734;29;20034;-63
2022/07/03 09:19:05;;;;;;;0.00;0.00;;;;;;;;;;4925513;29;20047;-64
2022/07/03 09:21:40;;;;;;;0.10;0.10;;;;;;;;;;4919489;29;20444;-64
2022/07/03 09:24:07;;;;;;;0.00;0.00;;;;;;;;;;4927029;29;20812;-63
2022/07/03 09:26:33;;;;;;;0.55;0.55;;;;;;;;;;4926123;29;20059;-64
2022/07/03 09:28:58;;;;;;;0.00;0.00;;;;;;;;;;4928502;29;20434;-64
2022/07/03 09:31:24;;;;;;;0.43;0.43;;;;;;;;;;4930323;29;20425;-63
2022/07/03 09:33:55;;;;;;;0.00;0.00;;;;;;;;;;4926119;29;20461;-63
2022/07/03 09:36:22;;;;;;;0.30;0.30;;;;;;;;;;4926159;29;20038;-62
2022/07/03 09:38:48;;;;;;;0.10;0.10;;;;;;;;;;4925932;29;20062;-63
2022/07/03 09:41:13;;;;;;;0.20;0.20;;;;;;;;;;4925126;29;20024;-63
2022/07/03 09:43:42;;;;;;;0.00;0.00;;;;;;;;;;4928673;29;20027;-63
2022/07/03 09:46:08;;;;;;;0.00;0.00;;;;;;;;;;4930651;29;20044;-63
2022/07/03 09:48:37;;;;;;;2.22;0.43;;;;;;;;;;4930579;29;20027;-62
2022/07/03 09:51:15;;;;;;;0.00;0.00;;;;;;;;;;4924035;29;21698;-63
2022/07/03 09:53:43;;;;;;;0.10;0.00;;;;;;;;;;4927765;29;20035;-63
2022/07/03 09:56:08;;;;;;;0.00;0.00;;;;;;;;;;4928036;29;20020;-62
2022/07/03 09:58:33;;;;;;;0.23;0.20;;;;;;;;;;4927962;29;20035;-63
2022/07/03 10:01:15;;;;;;;0.00;0.00;;;;;;;;;;4934230;29;20348;-63
2022/07/03 10:03:40;;;;;;;0.10;0.10;;;;;;;;;;4934485;29;20260;-63
2022/07/03 10:06:05;;;;;;;0.03;0.03;;;;;;;;;;4934201;29;20035;-63
2022/07/03 10:08:30;;;;;;;0.00;0.00;;;;;;;;;;4931518;29;20031;-62
2022/07/03 10:10:56;;;;;;;0.10;0.10;;;;;;;;;;4931801;29;20118;-62
2022/07/03 10:13:22;;;;;;;0.10;0.10;;;;;;;;;;4929207;29;20046;-63
2022/07/03 10:15:47;;;;;;;0.00;0.00;;;;;;;;;;4927758;29;20517;-63
2022/07/03 10:18:13;;;;;;;0.08;0.08;;;;;;;;;;4928756;29;20035;-63
2022/07/03 10:20:38;;;;;;;1.05;1.05;;;;;;;;;;4913297;29;20118;-63
2022/07/03 10:23:03;;;;;;;0.00;0.00;;;;;;;;;;4925747;29;20714;-62
2022/07/03 10:25:29;;;;;;;3.83;1.65;;;;;;;;;;4929794;29;20571;-63
2022/07/03 10:27:55;;;;;;;0.10;0.10;;;;;;;;;;4926701;29;20030;-63
2022/07/03 10:30:21;;;;;;;2.30;0.57;;;;;;;;;;4930673;29;20437;-63
2022/07/03 10:32:48;;;;;;;0.00;0.00;;;;;;;;;;4929072;29;20028;-63
2022/07/03 10:35:19;;;;;;;0.00;0.00;;;;;;;;;;4929328;29;20030;-63
2022/07/03 10:37:53;;;;;;;0.10;0.10;;;;;;;;;;4928246;29;20528;-63
2022/07/03 10:46:28;;;;;;;0.50;0.50;;;;;;;;;;4929607;29;20115;-63
2022/07/03 10:48:53;;;;;;;0.00;0.00;;;;;;;;;;4928638;29;20111;-63
2022/07/03 10:51:19;;;;;;;0.00;0.00;;;;;;;;;;4930060;29;20111;-63
2022/07/03 10:53:44;;;;;;;0.25;0.25;;;;;;;;;;4927939;29;20780;-63
2022/07/03 10:56:09;;;;;;;0.52;0.52;;;;;;;;;;4928400;29;20094;-63
2022/07/03 10:58:53;;;;;;;0.22;0.22;;;;;;;;;;4929555;29;20111;-63
2022/07/03 11:01:28;;;;;;;0.28;0.28;;;;;;;;;;4929378;29;20492;-63
2022/07/03 11:03:55;;;;;;;0.00;0.00;;;;;;;;;;4929081;29;20034;-63
2022/07/03 11:06:20;;;;;;;0.17;0.17;;;;;;;;;;4929359;29;20044;-62
2022/07/03 11:09:01;;;;;;;1.20;0.32;;;;;;;;;;4928978;29;20023;-63
2022/07/03 11:11:55;;;;;;;0.17;0.17;;;;;;;;;;4929113;29;20741;-63
2022/07/03 11:14:27;;;;;;;0.32;0.32;;;;;;;;;;4911479;29;20027;-63
2022/07/03 11:17:11;;;;;;;0.40;0.40;;;;;;;;;;4925518;29;20048;-63
2022/07/03 11:19:37;;;;;;;0.57;0.57;;;;;;;;;;4923195;29;20501;-63
2022/07/03 11:22:07;;;;;;;0.05;0.05;;;;;;;;;;4924361;29;20028;-64
2022/07/03 11:24:38;;;;;;;0.52;0.28;;;;;;;;;;4908026;29;20032;-64
2022/07/03 11:27:13;;;;;;;0.60;0.60;;;;;;;;;;4921919;29;20079;-64
2022/07/03 11:29:39;;;;;;;0.08;0.08;;;;;;;;;;4922884;29;20193;-64
2022/07/03 11:32:23;;;;;;;0.10;0.10;;;;;;;;;;4926437;29;20027;-64
2022/07/03 11:34:48;;;;;;;0.35;0.35;;;;;;;;;;4923505;29;20040;-64
2022/07/03 11:37:19;;;;;;;0.53;0.40;;;;;;;;;;4920961;29;20047;-64
2022/07/03 11:39:46;;;;;;;4.50;0.55;;;;;;;;;;4925494;29;21540;-63
2022/07/03 11:42:11;;;;;;;0.00;0.00;;;;;;;;;;4924202;29;20040;-63
2022/07/03 11:44:37;;;;;;;0.22;0.22;;;;;;;;;;4922130;29;20035;-63
2022/07/03 11:47:02;;;;;;;0.00;0.00;;;;;;;;;;4923542;29;20024;-63
2022/07/03 11:49:27;;;;;;;0.47;0.47;;;;;;;;;;4925379;29;20040;-64
2022/07/03 11:51:54;;;;;;;0.10;0.10;;;;;;;;;;4922278;29;20035;-63
2022/07/03 11:54:19;;;;;;;0.10;0.10;;;;;;;;;;4908489;29;20027;-63
2022/07/03 11:56:44;;;;;;;0.00;0.00;;;;;;;;;;4923499;29;20031;-64
2022/07/03 11:59:10;;;;;;;0.00;0.00;;;;;;;;;;4916903;29;20116;-63
2022/07/03 12:01:36;;;;;;;0.10;0.10;;;;;;;;;;4925678;29;20044;-63
2022/07/03 12:04:16;;;;;;;0.20;0.20;;;;;;;;;;4926142;29;20031;-68
2022/07/03 12:06:44;;;;;;;0.32;0.30;;;;;;;;;;4924009;29;20092;-64
2022/07/03 12:09:18;;;;;;;0.10;0.10;;;;;;;;;;4921607;29;20043;-64
2022/07/03 12:11:53;;;;;;;0.10;0.10;;;;;;;;;;4924444;29;20059;-63
2022/07/03 12:14:32;;;;;;;0.40;0.40;;;;;;;;;;4923639;29;20063;-64
2022/07/03 12:16:57;;;;;;;;;;;;;;;;;;4922659;29;20415;-66
2022/07/03 12:19:23;;;;;;;0.10;0.10;;;;;;;;;;4923698;29;20050;-66
2022/07/03 12:21:48;;;;;;;0.55;0.30;;;;;;;;;;4923986;29;20281;-66
2022/07/03 12:24:14;;;;;;;0.52;0.17;;;;;;;;;;4906614;29;20064;-66
2022/07/03 12:26:39;;;;;;;0.00;0.00;;;;;;;;;;4923032;29;20028;-66
2022/07/03 12:29:12;;;;;;;3.10;0.80;;;;;;;;;;4926486;29;20389;-66
2022/07/03 12:31:41;;;;;;;0.00;0.00;;;;;;;;;;4928538;29;20082;-65
2022/07/03 12:34:07;;;;;;;0.20;0.20;;;;;;;;;;4926249;29;20110;-66
2022/07/03 12:36:32;;;;;;;0.00;0.00;;;;;;;;;;4928500;29;20048;-65
2022/07/03 12:38:58;;;;;;;0.00;0.00;;;;;;;;;;4927886;29;20027;-65
2022/07/03 12:41:24;;;;;;;0.10;0.10;;;;;;;;;;4910157;29;20028;-65
2022/07/03 12:43:50;;;;;;;0.08;0.08;;;;;;;;;;4926129;29;20051;-65
2022/07/03 12:46:17;;;;;;;0.15;0.13;;;;;;;;;;4930829;29;20362;-66
2022/07/03 12:48:50;;;;;;;0.70;0.10;;;;;;;;;;4930970;29;20052;-66
2022/07/03 12:51:35;;;;;;;0.00;0.00;;;;;;;;;;4926929;29;20023;-65
2022/07/03 12:54:00;;;;;;;0.20;0.20;;;;;;;;;;4929913;29;20453;-65
2022/07/03 12:56:25;;;;;;;0.83;0.60;;;;;;;;;;4929295;29;20039;-65
2022/07/03 13:01:36;;;;;;;0.00;0.00;;;;;;;;;;4930498;29;20315;-65
2022/07/03 13:04:02;;;;;;;0.10;0.10;;;;;;;;;;4929919;29;20067;-65
2022/07/03 13:06:28;;;;;;;0.20;0.20;;;;;;;;;;4929715;29;20050;-65
2022/07/03 13:08:58;;;;;;;0.20;0.20;;;;;;;;;;4930602;29;20027;-67
2022/07/03 13:11:33;;;;;;;0.10;0.10;;;;;;;;;;4928699;29;20028;-65
2022/07/03 13:14:05;;;;;;;0.00;0.00;;;;;;;;;;4929938;29;20035;-66
2022/07/03 13:16:35;;;;;;;0.00;0.00;;;;;;;;;;4931326;29;20748;-65
2022/07/03 13:19:02;;;;;;;0.00;0.00;;;;;;;;;;4927802;29;20048;-65
2022/07/03 13:21:27;;;;;;;0.00;0.00;;;;;;;;;;4930723;29;20067;-65
2022/07/03 13:23:53;;;;;;;0.00;0.00;;;;;;;;;;4929537;29;20032;-65
2022/07/03 13:26:18;;;;;;;2.80;1.15;;;;;;;;;;4930487;29;20323;-63
2022/07/03 13:28:43;;;;;;;0.25;0.25;;;;;;;;;;4930467;29;20023;-63
2022/07/03 13:31:09;;;;;;;0.00;0.00;;;;;;;;;;4928337;29;20366;-64
2022/07/03 13:33:34;;;;;;;0.00;0.00;;;;;;;;;;4930640;29;21236;-64
2022/07/03 13:35:59;;;;;;;0.00;0.00;;;;;;;;;;4930327;29;20264;-64
2022/07/03 13:38:24;;;;;;;1.33;0.93;;;;;;;;;;4929909;29;20542;-64
2022/07/03 13:40:49;;;;;;;6.30;1.13;;;;;;;;;;4930473;29;20263;-64
2022/07/03 13:43:15;;;;;;;0.00;0.00;;;;;;;;;;4930387;29;20268;-65
2022/07/03 13:45:40;;;;;;;0.27;0.27;;;;;;;;;;4930371;29;20031;-65
2022/07/03 13:48:06;;;;;;;0.40;0.30;;;;;;;;;;4928247;29;20275;-65
2022/07/03 13:50:31;;;;;;;0.25;0.25;;;;;;;;;;4930586;29;20393;-65
2022/07/03 13:52:56;;;;;;;0.00;0.00;;;;;;;;;;4930336;29;20027;-65
2022/07/03 13:55:22;;;;;;;0.00;0.00;;;;;;;;;;4928469;29;20027;-64
2022/07/03 13:57:48;;;;;;;0.00;0.00;;;;;;;;;;4930036;29;20026;-65
2022/07/03 14:00:13;;;;;;;0.52;0.52;;;;;;;;;;4931558;29;20126;-65
2022/07/03 14:02:39;;;;;;;0.82;0.50;;;;;;;;;;4930868;29;20110;-65
2022/07/03 14:05:04;;;;;;;0.00;0.00;;;;;;;;;;4930107;29;20035;-65
2022/07/03 14:07:30;;;;;;;1.35;1.33;;;;;;;;;;4926326;29;20490;-65
2022/07/03 14:09:55;;;;;;;0.00;0.00;;;;;;;;;;4923218;29;20028;-66
2022/07/03 14:12:20;;;;;;;0.10;0.10;;;;;;;;;;4921621;29;20051;-65
2022/07/03 14:14:45;;;;;;;0.00;0.00;;;;;;;;;;4926554;29;20039;-64
2022/07/03 14:17:11;;;;;;;0.20;0.20;;;;;;;;;;4925001;29;20336;-64
2022/07/03 14:19:36;;;;;;;0.10;0.10;;;;;;;;;;4915345;29;20357;-64
2022/07/03 14:22:01;;;;;;;0.00;0.00;;;;;;;;;;4941835;28;20083;-63
2022/07/03 14:24:26;;;;;;;0.93;0.88;;;;;;;;;;4944446;28;20043;-65
2022/07/03 14:32:29;;;;;;;0.00;0.00;;;;;;;;;;4941246;28;20075;-64
2022/07/03 14:34:54;;;;;;;0.38;0.38;;;;;;;;;;4940756;28;20408;-65
2022/07/03 14:37:19;;;;;;;0.80;0.73;;;;;;;;;;4942131;28;20024;-66
2022/07/03 14:39:45;;;;;;;0.45;0.10;;;;;;;;;;4942901;28;20026;-65
2022/07/03 14:42:10;;;;;;;0.00;0.00;;;;;;;;;;4943795;28;20140;-64
2022/07/03 14:44:36;;;;;;;0.13;0.13;;;;;;;;;;4936388;29;20107;-64
2022/07/03 14:47:01;;;;;;;0.00;0.00;;;;;;;;;;4950849;28;20353;-65
2022/07/03 14:49:27;;;;;;;0.00;0.00;;;;;;;;;;4948729;28;20654;-64
2022/07/03 14:51:52;;;;;;;0.00;0.00;;;;;;;;;;4950344;28;20491;-64
2022/07/03 14:54:19;;;;;;;0.00;0.00;;;;;;;;;;4952634;28;20031;-65
2022/07/03 14:56:50;;;;;;;0.68;0.43;;;;;;;;;;4950319;28;20030;-65
2022/07/03 14:59:18;;;;;;;0.75;0.75;;;;;;;;;;4951553;28;20505;-64
2022/07/03 15:01:45;;;;;;;0.45;0.30;;;;;;;;;;4948656;28;20023;-64
2022/07/03 15:04:25;;;;;;;0.15;0.15;;;;;;;;;;4946821;28;20031;-65
2022/07/03 15:06:50;;;;;;;0.00;0.00;;;;;;;;;;4945088;28;20107;-64
2022/07/03 15:09:25;;;;;;;0.05;0.05;;;;;;;;;;4946575;28;20110;-64